Current Weather

Sussex

Sussex, New Jersey (KFWN)

Report from: Friday, February 23, 2024 3:53 PM EST
Current time: Friday, February 23, 2024 4:30 PM EST

Nearby weather – Weather history – Daily summaries
Weather forecast

Temperature7.2°C (45.0°F)
Wind chill5.5°C (41.8°F)
Dew point2.2°C (36.0°F)
Winds 5 kts (2.6 m/s, 5.8 mph) North-Northwest (330°)
Visibility10 mi. (16.1 km)
Clouds Ceiling: Broken clouds 2,100 ft. (640 m)
Altimeter29.46 in.Hg (998 mB)
Relative humidity71 %
Density altitude-299 ft. (-91 m)
Sea-level pressure99.8 kPa (998 mB, 29.46 in.Hg)
Remarks Fully automated report
Automated weather observing station with precipitation discriminator
Pressure falling more quickly
Flight conditions Marginal Visual Meteorological Conditions
Raw dataKFWN 232053Z AUTO 33005KT 10SM BKN021 07/02 A2946 RMK AO2 SLP977 T00720022 58003
An error has occurred. This application may no longer respond until reloaded. Reload 🗙